Huvudsida
METAR-TAF:

METAR-TAF

Flygplatser :

Chaudhary Charan Singh Airport

Lucknow, Indien

latitud: 26-45N, longitud: 080-53E, höjd: 122 m

Aktuellt väderrapport

Denna rapport gjordes för 34 minuter sedan, klockan 21:00 UTC
Vind 6 kt från nordväst
Temperatur 15°C
Fuktighet 63%
Tryck 1013 hPa
Sikt: 5000 m
torrdis,

METAR: VILK 222100Z 31006KT 5000 HZ NSC 15/08 Q1013 NOSIG

Tid: 03:04 (21:34 UTC)

Väderprognos

Denna rapport gjordes för 1 timme och 34 minuter sedan, klockan 20:00 UTC
Prognos gäller från 22 kl. 21 UTC till 23 kl. 06 UTC
Vind 5 kt från nordväst
Sikt: 3000 m
Få moln på en höjd av 2000 ft
Spridda moln på en höjd av 10000 ft
fuktdis
Blir
från 23 kl. 00 UTC till 23 kl. 02 UTC
Sikt: 1500 m
grunt dimma
Blir
från 23 kl. 04 UTC till 23 kl. 06 UTC
Vind 3 kt från väst
Sikt: 3000 m
Få moln på en höjd av 2000 ft
fuktdis, torrdis,

TAF: VILK 222000Z 2221/2306 32005KT 3000 BR FEW020 SCT100 BECMG 2300/2302 1500 MIFG BECMG 2304/2306 27003KT 3000 BR HZ FEW020

Aktuella väderrapporter och prognoser från 4000 flygplatser (METAR- och TAF-rapporter).

De tillgängliga stationerna syns som gula och röda prickar på kartan.

För musen över prickarna för att se namnen på stationerna.

Klicka sedan för att få väderrapporter och prognoser.

För att ändra kartan: Klicka på de gröna knapparna med ett svart kors på för att zooma in; den gröna knappen med ett streck på för att zooma ut; eller på de gröna pilarna för angränsande kartor.


METAR-TAF: